Hindsboro, Illinois
Current Conditions -  °F | °C
As of 8:32 PM on Saturday 20 Dec 2014 (Local Time) from KMTO Reporting Station
Overcast Overcast  
Wind Chill: 24°   Ceiling: 2700
Heat Index: 30°   Visibility: 10mi
Dew Point: 25°   Wind: 6mph
Humidity: 82%   Direction: 150°SSE
Pressure: 30.27"   Gusts: NA
Location:  39.69°N, 88.13°W
Report Text: KMTO 210232Z AUTO 15005KT 10SM BKN027 OVC075 M01/M04 A3027 RMK AO2 T10111039
Loading
Personal Weather Stations






























Interactive Weather Map New forecast layout! Learn more

10-Day Weather Forecast

Advertisements
Track Severe Weather on mobile